Time;durP1;ratioP1;P1;durP2;ratioP2;P2;SDS_P1;SDS_P2;PMS_P1;PMS_P2;Temp;Humidity;BMP_temperature;BMP_pressure;BME280_temperature;BME280_humidity;BME280_pressure;Samples;Min_cycle;Max_cycle;Signal;HPM_P1;HPM_P2
2024/03/13 00:00:09;;;;;;;63.87;9.03;;;;;;;;;;5017366;28;20950;-68
2024/03/13 00:02:38;;;;;;;66.80;10.93;;;;;;;;;;5019778;28;20489;-68
2024/03/13 00:05:06;;;;;;;66.47;9.70;;;;;;;;;;5011548;28;20473;-68
2024/03/13 00:07:33;;;;;;;64.70;10.03;;;;;;;;;;5019499;28;20507;-68
2024/03/13 00:10:01;;;;;;;63.20;9.03;;;;;;;;;;5011655;28;20480;-68
2024/03/13 00:12:29;;;;;;;64.33;8.67;;;;;;;;;;5011610;28;20442;-68
2024/03/13 00:14:57;;;;;;;63.67;8.97;;;;;;;;;;5011618;28;20475;-68
2024/03/13 00:17:24;;;;;;;65.70;9.07;;;;;;;;;;5019543;28;20472;-68
2024/03/13 00:19:54;;;;;;;63.50;8.80;;;;;;;;;;5012871;28;20447;-68
2024/03/13 00:22:22;;;;;;;63.90;7.00;;;;;;;;;;5025430;28;20570;-68
2024/03/13 00:24:49;;;;;;;61.83;7.73;;;;;;;;;;5028723;28;20457;-68
2024/03/13 00:27:16;;;;;;;60.70;6.90;;;;;;;;;;5017978;28;20470;-68
2024/03/13 00:29:44;;;;;;;62.10;7.40;;;;;;;;;;5019820;28;20452;-68
2024/03/13 00:32:12;;;;;;;64.80;7.13;;;;;;;;;;5018640;28;20479;-68
2024/03/13 00:34:40;;;;;;;61.67;7.40;;;;;;;;;;5016123;28;20486;-68
2024/03/13 00:37:08;;;;;;;61.67;6.20;;;;;;;;;;5010667;28;20520;-68
2024/03/13 00:39:35;;;;;;;61.43;6.70;;;;;;;;;;5026399;28;20448;-68
2024/03/13 00:42:03;;;;;;;60.47;7.07;;;;;;;;;;5029248;28;20490;-68
2024/03/13 00:44:30;;;;;;;60.20;6.20;;;;;;;;;;5020197;28;20456;-68
2024/03/13 00:46:57;;;;;;;60.73;6.20;;;;;;;;;;5024788;28;20478;-68
2024/03/13 00:49:24;;;;;;;59.20;5.67;;;;;;;;;;5017429;28;20459;-67
2024/03/13 00:51:52;;;;;;;60.07;5.60;;;;;;;;;;5014098;28;20941;-68
2024/03/13 00:54:21;;;;;;;58.40;5.13;;;;;;;;;;5034619;28;20453;-68
2024/03/13 00:56:48;;;;;;;61.07;5.80;;;;;;;;;;5021873;28;20481;-68
2024/03/13 00:59:16;;;;;;;60.37;5.80;;;;;;;;;;5014438;28;20461;-68
2024/03/13 01:01:44;;;;;;;59.97;5.17;;;;;;;;;;5022548;28;20927;-68
2024/03/13 01:04:11;;;;;;;58.17;5.23;;;;;;;;;;5026319;28;20447;-68
2024/03/13 01:06:39;;;;;;;60.40;5.53;;;;;;;;;;5034188;28;20477;-69
2024/03/13 01:09:09;;;;;;;60.97;5.90;;;;;;;;;;5034168;28;20888;-68
2024/03/13 01:11:38;;;;;;;58.40;5.20;;;;;;;;;;5026694;28;20503;-68
2024/03/13 01:14:05;;;;;;;58.57;4.33;;;;;;;;;;5022950;28;20448;-68
2024/03/13 01:16:32;;;;;;;57.27;4.30;;;;;;;;;;5029198;28;20483;-68
2024/03/13 01:19:00;;;;;;;58.97;4.73;;;;;;;;;;5023509;28;20463;-68
2024/03/13 01:21:27;;;;;;;56.97;4.00;;;;;;;;;;5014219;28;20453;-68
2024/03/13 01:23:54;;;;;;;57.27;4.23;;;;;;;;;;5031792;28;20451;-68
2024/03/13 01:26:21;;;;;;;57.20;3.93;;;;;;;;;;5025560;28;20446;-68
2024/03/13 01:28:50;;;;;;;56.37;4.00;;;;;;;;;;5033121;28;20452;-68
2024/03/13 01:31:17;;;;;;;57.00;3.80;;;;;;;;;;5018354;28;20459;-68
2024/03/13 01:33:45;;;;;;;57.03;3.80;;;;;;;;;;5025296;28;20443;-68
2024/03/13 01:36:12;;;;;;;56.60;3.43;;;;;;;;;;5013865;28;20488;-69
2024/03/13 01:38:38;;;;;;;57.10;3.50;;;;;;;;;;5013719;28;20464;-69
2024/03/13 01:55:13;;;;;;;57.13;3.40;;;;;;;;;;5023803;28;20491;-69
2024/03/13 01:57:56;;;;;;;57.07;3.13;;;;;;;;;;5025498;28;20479;-69
2024/03/13 02:03:10;;;;;;;55.63;3.13;;;;;;;;;;5012591;28;20510;-69
2024/03/13 02:05:37;;;;;;;56.20;3.07;;;;;;;;;;5013213;28;20944;-69
2024/03/13 02:08:05;;;;;;;56.10;3.20;;;;;;;;;;5031880;28;21002;-69
2024/03/13 02:10:32;;;;;;;55.57;2.93;;;;;;;;;;5032921;28;20447;-69
2024/03/13 02:13:03;;;;;;;58.10;3.10;;;;;;;;;;5033231;28;20444;-68
2024/03/13 02:15:31;;;;;;;56.67;3.10;;;;;;;;;;5027035;28;20442;-68
2024/03/13 02:18:00;;;;;;;56.27;3.33;;;;;;;;;;5012792;28;20473;-68
2024/03/13 02:20:29;;;;;;;56.27;3.23;;;;;;;;;;5018575;28;20458;-68
2024/03/13 02:23:02;;;;;;;56.27;2.90;;;;;;;;;;5032551;28;20553;-68
2024/03/13 02:25:31;;;;;;;56.20;3.13;;;;;;;;;;5018346;28;20460;-69
2024/03/13 02:27:59;;;;;;;60.03;3.40;;;;;;;;;;5013278;28;20482;-68
2024/03/13 02:30:26;;;;;;;57.37;3.00;;;;;;;;;;5031190;28;20965;-69
2024/03/13 02:32:53;;;;;;;56.23;2.70;;;;;;;;;;5031565;28;20448;-68
2024/03/13 02:35:21;;;;;;;56.10;3.17;;;;;;;;;;5026653;28;20445;-68
2024/03/13 02:37:48;;;;;;;57.00;2.80;;;;;;;;;;5011097;28;20995;-69
2024/03/13 02:40:16;;;;;;;56.40;2.73;;;;;;;;;;5011829;28;20455;-69
2024/03/13 02:42:44;;;;;;;56.33;2.80;;;;;;;;;;5019705;28;21028;-69
2024/03/13 02:45:13;;;;;;;56.43;3.37;;;;;;;;;;5031157;28;20940;-69
2024/03/13 02:47:41;;;;;;;55.90;3.00;;;;;;;;;;5015036;28;20852;-68
2024/03/13 02:50:11;;;;;;;56.07;3.10;;;;;;;;;;5011573;28;20452;-68
2024/03/13 02:52:38;;;;;;;56.40;3.33;;;;;;;;;;5026312;28;20932;-69
2024/03/13 02:55:05;;;;;;;56.33;3.03;;;;;;;;;;5030869;28;20459;-69
2024/03/13 02:57:32;;;;;;;56.23;3.43;;;;;;;;;;5016797;28;20475;-69
2024/03/13 02:59:59;;;;;;;55.70;2.80;;;;;;;;;;5020587;28;20447;-69
2024/03/13 03:02:27;;;;;;;55.90;3.10;;;;;;;;;;5030594;28;20478;-69
2024/03/13 03:04:56;;;;;;;55.80;2.90;;;;;;;;;;5013752;28;20468;-69
2024/03/13 03:07:23;;;;;;;56.23;3.00;;;;;;;;;;5024447;28;20473;-68
2024/03/13 03:09:51;;;;;;;56.57;3.40;;;;;;;;;;5023208;28;20456;-69
2024/03/13 03:12:18;;;;;;;56.20;3.10;;;;;;;;;;5027136;28;20455;-69
2024/03/13 03:14:45;;;;;;;55.70;3.03;;;;;;;;;;5010908;28;20811;-69
2024/03/13 03:17:14;;;;;;;56.37;3.20;;;;;;;;;;5010967;28;20531;-69
2024/03/13 03:19:41;;;;;;;56.37;3.40;;;;;;;;;;5019363;28;20458;-69
2024/03/13 03:22:09;;;;;;;58.77;2.90;;;;;;;;;;5021527;28;20572;-69
2024/03/13 03:24:36;;;;;;;56.00;2.57;;;;;;;;;;5016025;28;20455;-69
2024/03/13 03:27:05;;;;;;;56.07;2.77;;;;;;;;;;5021426;28;20474;-69
2024/03/13 03:29:32;;;;;;;56.13;3.20;;;;;;;;;;5017094;28;20481;-69
2024/03/13 03:32:00;;;;;;;56.10;2.90;;;;;;;;;;5020767;28;20459;-69
2024/03/13 03:34:27;;;;;;;56.00;3.07;;;;;;;;;;5017745;28;20456;-69
2024/03/13 03:36:55;;;;;;;56.10;2.80;;;;;;;;;;5027049;28;20479;-69
2024/03/13 03:39:25;;;;;;;56.10;3.00;;;;;;;;;;5011053;28;20460;-69
2024/03/13 03:41:52;;;;;;;56.70;3.30;;;;;;;;;;5010969;28;20535;-69
2024/03/13 03:44:19;;;;;;;55.97;3.00;;;;;;;;;;5018267;28;20491;-69
2024/03/13 03:46:46;;;;;;;56.23;3.20;;;;;;;;;;5010589;28;20471;-68
2024/03/13 03:49:13;;;;;;;56.17;3.37;;;;;;;;;;5021872;28;20448;-69
2024/03/13 03:51:41;;;;;;;56.23;3.40;;;;;;;;;;5023224;28;20444;-69
2024/03/13 03:54:08;;;;;;;56.27;3.23;;;;;;;;;;5010258;28;20450;-69
2024/03/13 03:56:38;;;;;;;57.70;3.40;;;;;;;;;;5010178;28;20561;-69
2024/03/13 03:59:06;;;;;;;55.80;2.80;;;;;;;;;;5012143;28;20543;-69
2024/03/13 04:01:33;;;;;;;56.30;3.07;;;;;;;;;;5030206;28;20497;-69
2024/03/13 04:04:00;;;;;;;55.30;2.70;;;;;;;;;;5028963;28;20488;-69
2024/03/13 04:06:28;;;;;;;57.37;3.00;;;;;;;;;;5010141;28;20452;-69
2024/03/13 04:08:55;;;;;;;56.00;3.00;;;;;;;;;;5019062;28;20814;-69
2024/03/13 04:11:23;;;;;;;56.17;3.20;;;;;;;;;;5025726;28;20907;-69
2024/03/13 04:13:50;;;;;;;56.00;2.70;;;;;;;;;;5010526;28;20593;-69
2024/03/13 04:16:18;;;;;;;56.47;2.90;;;;;;;;;;5010515;28;20823;-69
2024/03/13 04:18:45;;;;;;;56.67;3.00;;;;;;;;;;5010214;28;20953;-69
2024/03/13 04:21:12;;;;;;;56.17;2.90;;;;;;;;;;5021052;28;20463;-69
2024/03/13 04:23:42;;;;;;;56.30;3.07;;;;;;;;;;5021570;28;20482;-69
2024/03/13 04:26:09;;;;;;;56.87;3.33;;;;;;;;;;5014231;28;20456;-69
2024/03/13 04:28:42;;;;;;;56.83;3.13;;;;;;;;;;5019519;28;20445;-69
2024/03/13 04:31:10;;;;;;;56.30;3.17;;;;;;;;;;5022169;28;20480;-69
2024/03/13 04:33:37;;;;;;;56.07;2.63;;;;;;;;;;5013981;28;20827;-69
2024/03/13 04:36:05;;;;;;;55.67;2.60;;;;;;;;;;5023572;28;20447;-69
2024/03/13 04:38:32;;;;;;;56.77;2.70;;;;;;;;;;5028459;28;20482;-69
2024/03/13 04:40:59;;;;;;;56.27;3.00;;;;;;;;;;5022856;28;20447;-69
2024/03/13 04:43:27;;;;;;;55.97;3.00;;;;;;;;;;5029182;28;20483;-69
2024/03/13 04:45:54;;;;;;;55.87;2.80;;;;;;;;;;5022062;28;20447;-69
2024/03/13 04:48:21;;;;;;;56.17;3.10;;;;;;;;;;5033260;28;20967;-69
2024/03/13 04:50:48;;;;;;;56.97;3.20;;;;;;;;;;5025665;28;20943;-69
2024/03/13 04:53:19;;;;;;;56.03;2.87;;;;;;;;;;5013392;28;20447;-69
2024/03/13 04:55:46;;;;;;;57.23;2.90;;;;;;;;;;5021047;28;20534;-69
2024/03/13 04:58:13;;;;;;;56.77;2.93;;;;;;;;;;5024982;28;20478;-70
2024/03/13 05:00:41;;;;;;;55.57;2.70;;;;;;;;;;5026747;28;20540;-69
2024/03/13 05:03:08;;;;;;;56.37;3.17;;;;;;;;;;5015073;28;20499;-69
2024/03/13 05:05:35;;;;;;;55.40;2.70;;;;;;;;;;5019334;28;20461;-69
2024/03/13 05:08:02;;;;;;;58.10;3.40;;;;;;;;;;5013337;28;20483;-69
2024/03/13 05:10:29;;;;;;;56.73;2.97;;;;;;;;;;5021354;28;20476;-69
2024/03/13 05:12:56;;;;;;;55.90;2.60;;;;;;;;;;5029376;28;20446;-69
2024/03/13 05:15:24;;;;;;;56.43;2.90;;;;;;;;;;5017196;28;20452;-70
2024/03/13 05:17:52;;;;;;;56.17;2.80;;;;;;;;;;5017008;28;20473;-69
2024/03/13 05:20:19;;;;;;;56.40;3.20;;;;;;;;;;5005361;28;20463;-69
2024/03/13 05:22:46;;;;;;;57.73;3.10;;;;;;;;;;5019954;28;20444;-69
2024/03/13 05:25:17;;;;;;;56.40;3.53;;;;;;;;;;5030038;28;20448;-69
2024/03/13 05:27:46;;;;;;;55.90;2.80;;;;;;;;;;5012794;28;20476;-69
2024/03/13 05:30:13;;;;;;;55.70;2.87;;;;;;;;;;5012662;28;20474;-69
2024/03/13 05:32:41;;;;;;;57.20;3.47;;;;;;;;;;5012763;28;20448;-68
2024/03/13 05:35:08;;;;;;;56.43;3.20;;;;;;;;;;5012845;28;20520;-69
2024/03/13 05:37:35;;;;;;;56.97;3.47;;;;;;;;;;5019453;28;20481;-69
2024/03/13 05:40:11;;;;;;;60.97;3.70;;;;;;;;;;5021867;28;20546;-69
2024/03/13 05:42:41;;;;;;;56.20;3.20;;;;;;;;;;5032706;28;20452;-69
2024/03/13 05:45:09;;;;;;;56.30;3.27;;;;;;;;;;5014393;28;20465;-69
2024/03/13 05:47:36;;;;;;;55.90;3.10;;;;;;;;;;5012580;28;20581;-69
2024/03/13 05:50:03;;;;;;;56.00;3.50;;;;;;;;;;5013628;28;20448;-69
2024/03/13 05:52:30;;;;;;;56.00;3.50;;;;;;;;;;5019611;28;20527;-69
2024/03/13 05:54:57;;;;;;;56.77;3.43;;;;;;;;;;5012683;28;20853;-69
2024/03/13 05:57:24;;;;;;;56.40;3.17;;;;;;;;;;5031683;28;20478;-69
2024/03/13 05:59:52;;;;;;;56.40;3.40;;;;;;;;;;5023879;28;20447;-69
2024/03/13 06:02:19;;;;;;;56.00;3.30;;;;;;;;;;5028933;28;20464;-69
2024/03/13 06:04:46;;;;;;;56.90;3.53;;;;;;;;;;5012247;28;20489;-69
2024/03/13 06:07:13;;;;;;;57.50;3.50;;;;;;;;;;5011920;28;20468;-69
2024/03/13 06:09:41;;;;;;;56.47;3.30;;;;;;;;;;5011832;28;20451;-69
2024/03/13 06:12:08;;;;;;;56.77;3.93;;;;;;;;;;5020331;28;20449;-69
2024/03/13 06:14:37;;;;;;;56.70;3.27;;;;;;;;;;5011458;28;20451;-69
2024/03/13 06:17:04;;;;;;;56.60;3.20;;;;;;;;;;5012599;28;20571;-69
2024/03/13 06:19:31;;;;;;;56.73;3.13;;;;;;;;;;5018895;28;20548;-69
2024/03/13 06:22:00;;;;;;;56.53;3.27;;;;;;;;;;5012254;28;20448;-69
2024/03/13 06:24:32;;;;;;;58.23;3.73;;;;;;;;;;5023307;28;20486;-69
2024/03/13 06:27:00;;;;;;;55.97;3.10;;;;;;;;;;5014943;28;20469;-69
2024/03/13 06:32:14;;;;;;;56.83;3.30;;;;;;;;;;5011829;28;20502;-69
2024/03/13 06:34:41;;;;;;;56.87;3.40;;;;;;;;;;5011326;28;20449;-69
2024/03/13 06:37:09;;;;;;;56.70;3.70;;;;;;;;;;5011486;28;20494;-70
2024/03/13 06:39:36;;;;;;;56.40;3.57;;;;;;;;;;5011368;28;20947;-69
2024/03/13 06:42:03;;;;;;;56.87;3.50;;;;;;;;;;5028369;28;20948;-69
2024/03/13 06:44:31;;;;;;;56.73;3.90;;;;;;;;;;5023053;28;20495;-69
2024/03/13 06:46:58;;;;;;;57.70;3.97;;;;;;;;;;5014708;28;20479;-69
2024/03/13 06:49:25;;;;;;;56.70;3.27;;;;;;;;;;5019040;28;20819;-69
2024/03/13 06:51:52;;;;;;;56.70;3.83;;;;;;;;;;5019531;28;20968;-69
2024/03/13 06:54:20;;;;;;;56.70;4.00;;;;;;;;;;5022710;28;20498;-69
2024/03/13 06:56:47;;;;;;;56.97;3.63;;;;;;;;;;5031276;28;20834;-69
2024/03/13 06:59:16;;;;;;;56.77;3.83;;;;;;;;;;5020834;28;20453;-69
2024/03/13 07:01:44;;;;;;;57.47;3.63;;;;;;;;;;5025401;28;20932;-69
2024/03/13 07:04:11;;;;;;;56.60;3.57;;;;;;;;;;5020992;28;20495;-69
2024/03/13 07:06:38;;;;;;;57.80;4.10;;;;;;;;;;5016277;28;20467;-69
2024/03/13 07:09:07;;;;;;;59.60;3.57;;;;;;;;;;5022231;28;20563;-69
2024/03/13 07:11:34;;;;;;;58.13;4.17;;;;;;;;;;5026193;28;20821;-69
2024/03/13 07:14:01;;;;;;;56.70;3.70;;;;;;;;;;5010794;28;20809;-69
2024/03/13 07:16:28;;;;;;;56.50;3.80;;;;;;;;;;5019110;28;20448;-69
2024/03/13 07:18:59;;;;;;;57.50;3.80;;;;;;;;;;5011007;28;20551;-69
2024/03/13 07:21:26;;;;;;;57.23;4.13;;;;;;;;;;5011109;28;20453;-69
2024/03/13 07:23:53;;;;;;;58.10;3.70;;;;;;;;;;5010912;28;20575;-69
2024/03/13 07:26:21;;;;;;;57.20;3.40;;;;;;;;;;5018404;28;20451;-69
2024/03/13 07:28:48;;;;;;;57.70;3.27;;;;;;;;;;5017373;28;20546;-69
2024/03/13 07:31:15;;;;;;;57.30;3.50;;;;;;;;;;5026378;28;20456;-69
2024/03/13 07:33:42;;;;;;;56.10;2.93;;;;;;;;;;5024706;28;20441;-69
2024/03/13 07:36:09;;;;;;;55.70;3.43;;;;;;;;;;5013004;28;20483;-69
2024/03/13 07:38:37;;;;;;;58.67;3.70;;;;;;;;;;5010829;28;20540;-69
2024/03/13 07:41:05;;;;;;;56.90;3.10;;;;;;;;;;5027383;28;20453;-69
2024/03/13 07:43:32;;;;;;;56.30;3.30;;;;;;;;;;5030469;28;20454;-69
2024/03/13 07:45:59;;;;;;;58.10;3.50;;;;;;;;;;5010494;28;20460;-69
2024/03/13 07:48:26;;;;;;;56.80;2.93;;;;;;;;;;5002824;28;20468;-69
2024/03/13 07:50:54;;;;;;;56.10;3.00;;;;;;;;;;5018851;28;20841;-69
2024/03/13 07:53:21;;;;;;;56.07;3.07;;;;;;;;;;5010915;28;20485;-69
2024/03/13 07:55:48;;;;;;;56.67;2.90;;;;;;;;;;5018722;28;20497;-69
2024/03/13 07:58:16;;;;;;;56.70;3.37;;;;;;;;;;5029005;28;20480;-69
2024/03/13 08:00:43;;;;;;;57.20;3.23;;;;;;;;;;5025244;28;20445;-69
2024/03/13 08:03:10;;;;;;;58.30;3.13;;;;;;;;;;5032576;28;20452;-69
2024/03/13 08:05:37;;;;;;;57.50;3.10;;;;;;;;;;5016745;28;21028;-69
2024/03/13 08:08:05;;;;;;;57.57;3.17;;;;;;;;;;5014210;28;20989;-69
2024/03/13 08:10:32;;;;;;;58.73;2.60;;;;;;;;;;5020644;28;20456;-69
2024/03/13 08:13:00;;;;;;;56.80;3.00;;;;;;;;;;5022907;28;20460;-69
2024/03/13 08:15:28;;;;;;;56.67;3.27;;;;;;;;;;5018032;28;20442;-69
2024/03/13 08:17:56;;;;;;;56.60;3.27;;;;;;;;;;5018741;28;20553;-69
2024/03/13 08:20:23;;;;;;;56.27;3.03;;;;;;;;;;5025152;28;20477;-70
2024/03/13 08:22:50;;;;;;;56.67;3.00;;;;;;;;;;5027555;28;20455;-69
2024/03/13 08:25:19;;;;;;;55.60;2.80;;;;;;;;;;5016109;28;20494;-69
2024/03/13 08:27:47;;;;;;;55.60;2.60;;;;;;;;;;5028141;28;20477;-69
2024/03/13 08:30:17;;;;;;;56.43;3.20;;;;;;;;;;5014160;28;20450;-69
2024/03/13 08:32:44;;;;;;;56.40;2.80;;;;;;;;;;5019638;28;20567;-69
2024/03/13 08:35:13;;;;;;;56.60;3.03;;;;;;;;;;5016600;28;20449;-69
2024/03/13 08:37:41;;;;;;;56.27;2.77;;;;;;;;;;5013701;28;20477;-70
2024/03/13 08:40:11;;;;;;;56.07;2.87;;;;;;;;;;5022984;28;20450;-70
2024/03/13 08:42:40;;;;;;;55.30;2.53;;;;;;;;;;5034016;28;20885;-70
2024/03/13 08:45:08;;;;;;;58.20;3.30;;;;;;;;;;5017552;28;20482;-68
2024/03/13 08:47:35;;;;;;;58.57;3.67;;;;;;;;;;5033466;28;21076;-69
2024/03/13 08:50:04;;;;;;;59.20;3.00;;;;;;;;;;5025540;28;20460;-69
2024/03/13 08:52:31;;;;;;;58.10;3.10;;;;;;;;;;5013975;28;20457;-69
2024/03/13 08:54:58;;;;;;;58.90;3.13;;;;;;;;;;5014023;28;20454;-70
2024/03/13 08:57:28;;;;;;;56.90;2.90;;;;;;;;;;5016435;28;20554;-70
2024/03/13 08:59:57;;;;;;;57.37;3.03;;;;;;;;;;5018433;28;20454;-69
2024/03/13 09:02:25;;;;;;;55.87;3.00;;;;;;;;;;5016227;28;20454;-69
2024/03/13 09:04:53;;;;;;;56.73;3.10;;;;;;;;;;5018954;28;20474;-70
2024/03/13 09:07:20;;;;;;;57.37;2.83;;;;;;;;;;5013266;28;20462;-69
2024/03/13 09:09:48;;;;;;;57.93;3.03;;;;;;;;;;5013290;28;20907;-69
2024/03/13 09:12:17;;;;;;;56.40;3.30;;;;;;;;;;5013514;28;20458;-69
2024/03/13 09:14:45;;;;;;;56.53;3.20;;;;;;;;;;5013252;28;20460;-70
2024/03/13 09:17:13;;;;;;;56.37;3.30;;;;;;;;;;5013008;28;20470;-69
2024/03/13 09:19:41;;;;;;;55.90;2.93;;;;;;;;;;5021643;28;20465;-69
2024/03/13 09:22:11;;;;;;;55.67;3.37;;;;;;;;;;5021702;28;20504;-69
2024/03/13 09:24:39;;;;;;;57.23;3.47;;;;;;;;;;5020244;28;20482;-70
2024/03/13 09:27:06;;;;;;;56.70;3.27;;;;;;;;;;5021261;28;20468;-70
2024/03/13 09:29:33;;;;;;;60.00;3.90;;;;;;;;;;5021162;28;20446;-69
2024/03/13 09:32:00;;;;;;;57.20;4.10;;;;;;;;;;5021033;28;20463;-69
2024/03/13 09:34:29;;;;;;;57.10;3.60;;;;;;;;;;5021040;28;20451;-69
2024/03/13 09:36:57;;;;;;;57.97;3.57;;;;;;;;;;5012686;28;20483;-69
2024/03/13 09:39:24;;;;;;;57.30;4.10;;;;;;;;;;5015144;28;20504;-69
2024/03/13 09:41:53;;;;;;;58.93;3.63;;;;;;;;;;5032398;28;20445;-69
2024/03/13 09:44:20;;;;;;;56.37;3.47;;;;;;;;;;5030515;28;20548;-69
2024/03/13 09:46:48;;;;;;;56.77;3.90;;;;;;;;;;5018240;28;20829;-69
2024/03/13 09:49:15;;;;;;;56.17;3.73;;;;;;;;;;5032276;28;20542;-69
2024/03/13 09:51:43;;;;;;;58.73;4.03;;;;;;;;;;5032355;28;20544;-69
2024/03/13 09:54:11;;;;;;;56.17;3.73;;;;;;;;;;5023470;28;20941;-69
2024/03/13 09:56:38;;;;;;;57.07;3.63;;;;;;;;;;5024589;28;20581;-69
2024/03/13 09:59:06;;;;;;;58.70;3.87;;;;;;;;;;5032095;28;20454;-69
2024/03/13 10:01:35;;;;;;;57.73;4.20;;;;;;;;;;5032117;28;20858;-69
2024/03/13 10:04:10;;;;;;;59.03;3.70;;;;;;;;;;5016574;28;20451;-69
2024/03/13 10:06:38;;;;;;;56.00;3.17;;;;;;;;;;5012203;28;20473;-69
2024/03/13 10:09:11;;;;;;;56.13;3.83;;;;;;;;;;5012163;28;20460;-69
2024/03/13 10:11:39;;;;;;;56.40;3.47;;;;;;;;;;5012331;28;20478;-69
2024/03/13 10:14:07;;;;;;;58.77;3.80;;;;;;;;;;5012303;28;20804;-70
2024/03/13 10:16:34;;;;;;;56.07;3.40;;;;;;;;;;5011867;28;20474;-69
2024/03/13 10:19:01;;;;;;;57.50;3.87;;;;;;;;;;5011972;28;20445;-69
2024/03/13 10:21:28;;;;;;;57.30;3.43;;;;;;;;;;5011855;28;20456;-69
2024/03/13 10:23:56;;;;;;;58.57;3.90;;;;;;;;;;5018751;28;20476;-69
2024/03/13 10:26:23;;;;;;;57.53;3.90;;;;;;;;;;5011020;28;20557;-69
2024/03/13 10:28:50;;;;;;;56.80;4.00;;;;;;;;;;5011785;28;20455;-69
2024/03/13 10:31:17;;;;;;;57.17;3.93;;;;;;;;;;5013710;28;20830;-69
2024/03/13 10:33:45;;;;;;;60.95;4.10;;;;;;;;;;5015622;28;20445;-68
2024/03/13 10:36:13;;;;;;;56.57;3.90;;;;;;;;;;5012703;28;20210;-69
2024/03/13 10:38:41;;;;;;;57.90;3.30;;;;;;;;;;5019738;28;20462;-69
2024/03/13 10:41:09;;;;;;;56.47;3.67;;;;;;;;;;5019876;28;20938;-69
2024/03/13 10:43:36;;;;;;;55.93;3.53;;;;;;;;;;5010502;28;20531;-69
2024/03/13 10:46:04;;;;;;;55.97;3.70;;;;;;;;;;5014173;28;21052;-69
2024/03/13 10:48:32;;;;;;;56.57;3.70;;;;;;;;;;5018816;28;20470;-69
2024/03/13 10:51:00;;;;;;;56.90;3.20;;;;;;;;;;5010872;28;20455;-69
2024/03/13 10:53:27;;;;;;;56.80;3.50;;;;;;;;;;5019430;28;20545;-69
2024/03/13 10:55:54;;;;;;;57.13;4.03;;;;;;;;;;5011536;28;20447;-69
2024/03/13 10:58:21;;;;;;;56.70;3.63;;;;;;;;;;5012106;28;20474;-69
2024/03/13 11:00:48;;;;;;;55.87;3.13;;;;;;;;;;5017576;28;20497;-69
2024/03/13 11:03:16;;;;;;;57.77;3.83;;;;;;;;;;5009779;28;20509;-70
2024/03/13 11:05:43;;;;;;;56.90;3.67;;;;;;;;;;5015361;28;20488;-69
2024/03/13 11:08:10;;;;;;;57.50;3.87;;;;;;;;;;5026065;28;20472;-69
2024/03/13 11:10:38;;;;;;;56.07;3.40;;;;;;;;;;5022664;28;20446;-69
2024/03/13 11:13:06;;;;;;;56.27;4.00;;;;;;;;;;5023099;28;20452;-69
2024/03/13 11:15:33;;;;;;;57.37;3.67;;;;;;;;;;5011528;28;20456;-69
2024/03/13 11:18:01;;;;;;;56.70;3.57;;;;;;;;;;5010074;28;20475;-69
2024/03/13 11:20:28;;;;;;;56.00;3.20;;;;;;;;;;5010476;28;20461;-69
2024/03/13 11:22:55;;;;;;;55.70;3.00;;;;;;;;;;5030561;28;20446;-70
2024/03/13 11:25:22;;;;;;;57.70;3.30;;;;;;;;;;5030495;28;20492;-69
2024/03/13 11:27:51;;;;;;;58.87;3.73;;;;;;;;;;5029969;28;20557;-69
2024/03/13 11:30:19;;;;;;;57.37;3.57;;;;;;;;;;5030310;28;20450;-69
2024/03/13 11:32:48;;;;;;;57.53;3.47;;;;;;;;;;5030448;28;20482;-69
2024/03/13 11:35:16;;;;;;;57.77;4.40;;;;;;;;;;5021462;28;20982;-70
2024/03/13 11:37:44;;;;;;;57.87;4.00;;;;;;;;;;5010399;28;20919;-69
2024/03/13 11:40:11;;;;;;;57.00;3.50;;;;;;;;;;5011122;28;20457;-70
2024/03/13 11:42:40;;;;;;;57.37;3.60;;;;;;;;;;5014386;28;20449;-70
2024/03/13 11:45:11;;;;;;;57.37;3.50;;;;;;;;;;5013275;28;20937;-69
2024/03/13 11:47:41;;;;;;;56.80;3.50;;;;;;;;;;5002197;28;20552;-70
2024/03/13 11:50:10;;;;;;;56.80;3.23;;;;;;;;;;5017360;28;20958;-70
2024/03/13 11:52:38;;;;;;;57.10;3.10;;;;;;;;;;5021671;28;20568;-70
2024/03/13 11:55:07;;;;;;;57.17;3.37;;;;;;;;;;5030272;28;20468;-71
2024/03/13 11:57:34;;;;;;;57.00;3.60;;;;;;;;;;5030040;28;20477;-71
2024/03/13 12:00:02;;;;;;;55.97;3.00;;;;;;;;;;5030165;28;20513;-70
2024/03/13 12:02:41;;;;;;;56.40;3.47;;;;;;;;;;5011826;28;20490;-71
2024/03/13 12:05:10;;;;;;;58.83;3.80;;;;;;;;;;5010456;28;20491;-71
2024/03/13 12:07:42;;;;;;;56.43;3.40;;;;;;;;;;5010210;28;20462;-70
2024/03/13 12:10:12;;;;;;;57.80;3.93;;;;;;;;;;5025994;28;20503;-71
2024/03/13 12:12:40;;;;;;;57.80;3.60;;;;;;;;;;5030243;28;20449;-71
2024/03/13 12:15:10;;;;;;;58.47;3.70;;;;;;;;;;5030545;28;20438;-71
2024/03/13 12:17:37;;;;;;;56.23;3.73;;;;;;;;;;5029929;28;20465;-71
2024/03/13 12:20:05;;;;;;;56.30;3.33;;;;;;;;;;5030630;28;20449;-71
2024/03/13 12:22:32;;;;;;;56.00;4.00;;;;;;;;;;5030448;28;20990;-71
2024/03/13 12:24:59;;;;;;;57.57;4.27;;;;;;;;;;5030184;28;20485;-71
2024/03/13 12:27:27;;;;;;;58.77;5.80;;;;;;;;;;5028573;28;20465;-71
2024/03/13 12:29:54;;;;;;;57.00;4.00;;;;;;;;;;5010471;28;20485;-71
2024/03/13 12:32:22;;;;;;;57.87;4.00;;;;;;;;;;5026942;28;20446;-71
2024/03/13 12:34:50;;;;;;;58.40;4.57;;;;;;;;;;5011066;28;20455;-71
2024/03/13 12:37:17;;;;;;;57.00;3.80;;;;;;;;;;5012577;28;20557;-71
2024/03/13 12:39:46;;;;;;;57.97;3.60;;;;;;;;;;5031243;28;20969;-71
2024/03/13 12:42:14;;;;;;;57.90;4.37;;;;;;;;;;5031810;28;20504;-71
2024/03/13 12:44:41;;;;;;;57.90;4.10;;;;;;;;;;5033183;28;20450;-71
2024/03/13 12:47:12;;;;;;;56.47;3.70;;;;;;;;;;5030347;28;20493;-70
2024/03/13 12:49:40;;;;;;;58.30;3.97;;;;;;;;;;5025030;28;20947;-70
2024/03/13 12:52:07;;;;;;;56.20;3.30;;;;;;;;;;5033689;28;20864;-71
2024/03/13 12:54:36;;;;;;;57.10;4.10;;;;;;;;;;5031158;28;20446;-71
2024/03/13 12:57:03;;;;;;;57.20;3.93;;;;;;;;;;5013599;28;21039;-71
2024/03/13 12:59:31;;;;;;;56.90;3.70;;;;;;;;;;5013801;28;20448;-71
2024/03/13 13:01:58;;;;;;;56.60;3.30;;;;;;;;;;5013466;28;20447;-71
2024/03/13 13:04:25;;;;;;;56.50;3.40;;;;;;;;;;5013298;28;20505;-71
2024/03/13 13:06:53;;;;;;;57.33;3.93;;;;;;;;;;5018138;28;20492;-71
2024/03/13 13:09:22;;;;;;;57.27;4.03;;;;;;;;;;5033141;28;20446;-70
2024/03/13 13:11:49;;;;;;;56.67;4.00;;;;;;;;;;5033186;28;20456;-70
2024/03/13 13:14:16;;;;;;;56.30;3.17;;;;;;;;;;5033102;28;20451;-70
2024/03/13 13:16:44;;;;;;;56.90;3.33;;;;;;;;;;5008631;28;20454;-70
2024/03/13 13:19:11;;;;;;;58.27;3.97;;;;;;;;;;5026035;28;20453;-71
2024/03/13 13:21:38;;;;;;;57.90;4.70;;;;;;;;;;5024270;28;20445;-70
2024/03/13 13:24:05;;;;;;;57.77;3.63;;;;;;;;;;5032962;28;20456;-70
2024/03/13 13:26:33;;;;;;;59.03;4.13;;;;;;;;;;5032560;28;20864;-70
2024/03/13 13:29:01;;;;;;;56.47;3.40;;;;;;;;;;5019041;28;20443;-70
2024/03/13 13:31:28;;;;;;;56.60;3.67;;;;;;;;;;5012734;28;20470;-70
2024/03/13 13:33:56;;;;;;;57.70;3.80;;;;;;;;;;5018292;28;20503;-71
2024/03/13 13:36:23;;;;;;;56.87;4.17;;;;;;;;;;5032453;28;20445;-71
2024/03/13 13:38:51;;;;;;;57.67;4.20;;;;;;;;;;5020051;28;20450;-71
2024/03/13 13:41:20;;;;;;;57.07;3.97;;;;;;;;;;5028984;28;20942;-71
2024/03/13 13:43:47;;;;;;;58.80;4.43;;;;;;;;;;5032430;28;20450;-71
2024/03/13 13:46:15;;;;;;;58.90;4.00;;;;;;;;;;5031484;28;20488;-71
2024/03/13 13:48:42;;;;;;;58.70;4.60;;;;;;;;;;5032305;28;20446;-71
2024/03/13 13:51:10;;;;;;;57.43;4.67;;;;;;;;;;5032327;28;20453;-71
2024/03/13 13:53:37;;;;;;;57.60;5.27;;;;;;;;;;5021629;28;20512;-69
2024/03/13 13:56:04;;;;;;;58.70;4.80;;;;;;;;;;5012291;28;21035;-70
2024/03/13 13:58:31;;;;;;;59.43;3.90;;;;;;;;;;5029321;28;20466;-70
2024/03/13 14:00:59;;;;;;;59.40;4.33;;;;;;;;;;5032245;28;20472;-70
2024/03/13 14:03:27;;;;;;;59.90;3.67;;;;;;;;;;5032094;28;20453;-70
2024/03/13 14:05:54;;;;;;;57.77;4.20;;;;;;;;;;5031963;28;20886;-70
2024/03/13 14:08:21;;;;;;;58.17;4.47;;;;;;;;;;5031748;28;20501;-70
2024/03/13 14:10:54;;;;;;;62.53;4.60;;;;;;;;;;5031925;28;20450;-70
2024/03/13 14:13:21;;;;;;;57.33;4.13;;;;;;;;;;5015319;28;20478;-70
2024/03/13 14:15:49;;;;;;;58.37;4.70;;;;;;;;;;5012298;28;20446;-69
2024/03/13 14:18:17;;;;;;;57.33;4.60;;;;;;;;;;5012091;28;20833;-70
2024/03/13 14:20:44;;;;;;;57.97;4.60;;;;;;;;;;5031772;28;20500;-70
2024/03/13 14:23:12;;;;;;;57.17;4.20;;;;;;;;;;5025080;28;20443;-69
2024/03/13 14:25:39;;;;;;;58.47;4.30;;;;;;;;;;5011551;28;20889;-70
2024/03/13 14:28:09;;;;;;;57.40;3.80;;;;;;;;;;5011975;28;20831;-70
2024/03/13 14:30:38;;;;;;;57.50;3.90;;;;;;;;;;5011953;28;20454;-68
2024/03/13 14:33:06;;;;;;;57.30;4.47;;;;;;;;;;5018253;28;20659;-71
2024/03/13 14:35:33;;;;;;;56.90;3.73;;;;;;;;;;5031948;28;20454;-71
2024/03/13 14:38:00;;;;;;;57.37;3.80;;;;;;;;;;5018379;28;20492;-70
2024/03/13 14:40:29;;;;;;;58.40;5.37;;;;;;;;;;5029461;28;20458;-69
2024/03/13 14:42:56;;;;;;;58.17;5.00;;;;;;;;;;5026897;28;20447;-70
2024/03/13 14:45:23;;;;;;;59.00;4.77;;;;;;;;;;5011525;28;20450;-70
2024/03/13 14:47:50;;;;;;;57.10;4.13;;;;;;;;;;5011433;28;20479;-71
2024/03/13 14:50:18;;;;;;;58.10;3.20;;;;;;;;;;5018870;28;20453;-70
2024/03/13 14:52:45;;;;;;;57.00;3.07;;;;;;;;;;5011770;28;21017;-70